Time;durP1;ratioP1;P1;durP2;ratioP2;P2;SDS_P1;SDS_P2;PMS_P1;PMS_P2;Temp;Humidity;BMP_temperature;BMP_pressure;BME280_temperature;BME280_humidity;BME280_pressure;Samples;Min_cycle;Max_cycle;Signal;HPM_P1;HPM_P2
2022/06/18 00:00:50;;;;;;;5.07;1.50;;;26.00;62.30;;;;;;5094893;28;20449;-74
2022/06/18 00:03:16;;;;;;;4.50;1.50;;;26.00;62.30;;;;;;5094433;28;20024;-75
2022/06/18 00:05:45;;;;;;;4.70;1.50;;;26.00;62.30;;;;;;5094252;28;20446;-75
2022/06/18 00:08:15;;;;;;;5.10;1.63;;;26.00;62.50;;;;;;5093929;28;20034;-75
2022/06/18 00:10:41;;;;;;;4.20;1.25;;;25.90;62.40;;;;;;5094536;28;20040;-75
2022/06/18 00:16:01;;;;;;;2.47;1.35;;;25.90;62.90;;;;;;5094095;28;20032;-75
2022/06/18 00:18:27;;;;;;;4.82;1.55;;;25.90;62.40;;;;;;5094479;28;20434;-75
2022/06/18 00:20:53;;;;;;;5.18;1.63;;;25.90;62.40;;;;;;5093815;28;20073;-75
2022/06/18 00:23:20;;;;;;;5.80;1.92;;;25.90;62.30;;;;;;5094228;28;20111;-75
2022/06/18 00:25:49;;;;;;;4.45;1.58;;;25.90;62.30;;;;;;5094294;28;20024;-75
2022/06/18 00:28:26;;;;;;;4.32;1.50;;;25.90;62.30;;;;;;5094218;28;20028;-75
2022/06/18 00:30:54;;;;;;;3.65;1.77;;;25.80;62.10;;;;;;5093700;28;20100;-75
2022/06/18 00:33:21;;;;;;;4.00;1.52;;;25.80;62.30;;;;;;5094198;28;20020;-75
2022/06/18 00:35:48;;;;;;;3.10;1.30;;;25.80;63.00;;;;;;5093755;28;20460;-75
2022/06/18 00:38:24;;;;;;;6.97;1.98;;;25.80;62.50;;;;;;5093778;28;20035;-75
2022/06/18 00:40:51;;;;;;;3.83;1.40;;;25.70;62.40;;;;;;5093660;28;20498;-75
2022/06/18 00:43:21;;;;;;;3.90;1.40;;;25.70;62.50;;;;;;5094087;28;20425;-74
2022/06/18 00:45:50;;;;;;;3.63;1.73;;;25.70;62.60;;;;;;5093928;28;20084;-75
2022/06/18 00:48:29;;;;;;;8.27;1.73;;;25.70;62.60;;;;;;5092714;28;20032;-74
2022/06/18 00:51:07;;;;;;;1.83;1.20;;;25.70;62.80;;;;;;5093558;28;20043;-75
2022/06/18 00:53:44;;;;;;;2.17;1.13;;;25.70;62.70;;;;;;5093884;28;20031;-75
2022/06/18 00:56:38;;;;;;;3.95;1.50;;;25.70;62.70;;;;;;5093857;28;20115;-74
2022/06/18 00:59:45;;;;;;;3.20;1.60;;;25.60;62.60;;;;;;5092816;28;20036;-74
2022/06/18 01:02:19;;;;;;;6.03;1.77;;;25.70;62.70;;;;;;5060162;28;20483;-75
2022/06/18 01:04:45;;;;;;;5.18;1.95;;;25.70;62.80;;;;;;5093496;28;20471;-75
2022/06/18 01:07:30;;;;;;;4.80;1.52;;;25.60;63.00;;;;;;5093659;28;20050;-75
2022/06/18 01:09:58;;;;;;;2.20;1.85;;;25.50;63.20;;;;;;5093257;28;20024;-74
2022/06/18 01:12:24;;;;;;;5.28;2.05;;;25.40;63.40;;;;;;5093272;28;20032;-74
2022/06/18 01:15:00;;;;;;;4.20;1.63;;;25.40;63.60;;;;;;5093585;28;20048;-75
2022/06/18 01:17:26;;;;;;;2.70;1.80;;;25.40;63.80;;;;;;5093460;28;20095;-75
2022/06/18 01:19:52;;;;;;;6.63;1.83;;;25.30;63.70;;;;;;5093294;28;20028;-75
2022/06/18 01:22:32;;;;;;;6.47;1.80;;;25.30;64.10;;;;;;5093339;28;20028;-75
2022/06/18 01:24:58;;;;;;;4.10;2.00;;;25.20;64.00;;;;;;5093304;28;20122;-75
2022/06/18 01:27:24;;;;;;;3.03;2.20;;;25.20;64.20;;;;;;5093321;28;20064;-74
2022/06/18 01:29:50;;;;;;;5.30;2.17;;;25.10;64.40;;;;;;5093201;28;20099;-76
2022/06/18 01:32:16;;;;;;;4.63;2.15;;;25.10;64.70;;;;;;5093083;28;20547;-76
2022/06/18 01:34:44;;;;;;;4.47;2.20;;;25.00;64.80;;;;;;5093402;28;20027;-76
2022/06/18 01:37:10;;;;;;;3.92;2.17;;;25.00;64.90;;;;;;5093100;28;20463;-76
2022/06/18 01:39:39;;;;;;;3.80;1.85;;;25.00;65.00;;;;;;5092817;28;20161;-76
2022/06/18 01:42:16;;;;;;;6.45;2.08;;;25.00;65.10;;;;;;5093422;28;20043;-76
2022/06/18 01:44:50;;;;;;;6.43;2.25;;;24.90;65.20;;;;;;5093303;28;20474;-76
2022/06/18 01:47:39;;;;;;;7.32;2.28;;;24.90;65.40;;;;;;5093406;28;20027;-76
2022/06/18 01:50:36;;;;;;;3.90;2.05;;;24.80;65.50;;;;;;5093211;28;20059;-76
2022/06/18 01:53:26;;;;;;;6.50;2.35;;;24.80;66.40;;;;;;5081155;28;20039;-76
2022/06/18 01:56:44;;;;;;;4.88;2.50;;;24.80;66.00;;;;;;5092870;28;20097;-76
2022/06/18 01:59:25;;;;;;;4.82;1.85;;;24.80;66.20;;;;;;5093157;28;20028;-75
2022/06/18 02:01:52;;;;;;;7.53;2.55;;;24.70;66.30;;;;;;5097093;28;20085;-75
2022/06/18 02:04:20;;;;;;;6.45;2.47;;;24.60;66.40;;;;;;5097082;28;20102;-76
2022/06/18 02:06:46;;;;;;;4.10;2.20;;;24.60;66.60;;;;;;5097028;28;20103;-76
2022/06/18 02:09:37;;;;;;;5.00;2.70;;;24.60;66.80;;;;;;5096607;28;20051;-75
2022/06/18 02:12:09;;;;;;;5.03;2.20;;;24.50;66.90;;;;;;5096071;28;20085;-76
2022/06/18 02:14:37;;;;;;;6.65;2.80;;;24.60;67.10;;;;;;5096756;28;20030;-76
2022/06/18 02:17:06;;;;;;;3.38;2.65;;;24.50;67.60;;;;;;5096566;28;20039;-76
2022/06/18 02:19:35;;;;;;;5.13;2.70;;;24.40;67.50;;;;;;5096413;28;20024;-76
2022/06/18 02:22:01;;;;;;;4.35;3.05;;;24.40;67.80;;;;;;5096515;28;20028;-76
2022/06/18 02:24:28;;;;;;;3.92;2.45;;;24.30;67.80;;;;;;5096270;28;20410;-76
2022/06/18 02:26:55;;;;;;;4.80;2.40;;;24.30;67.90;;;;;;5096410;28;20056;-73
2022/06/18 02:29:26;;;;;;;4.05;2.45;;;24.30;68.10;;;;;;5096538;28;20028;-75
2022/06/18 02:31:52;;;;;;;4.40;2.38;;;24.20;68.20;;;;;;5096176;28;20526;-74
2022/06/18 02:34:22;;;;;;;5.72;3.03;;;24.20;68.20;;;;;;5096403;28;20031;-75
2022/06/18 02:36:48;;;;;;;5.45;3.28;;;24.10;68.40;;;;;;5095984;28;20097;-75
2022/06/18 02:39:20;;;;;;;6.03;3.30;;;24.10;68.50;;;;;;5095964;28;20050;-76
2022/06/18 02:41:45;;;;;;;7.87;3.63;;;24.10;68.70;;;;;;5095958;28;20024;-75
2022/06/18 02:44:13;;;;;;;4.75;3.20;;;24.10;68.90;;;;;;5096019;28;20269;-75
2022/06/18 02:46:39;;;;;;;7.95;3.40;;;24.00;69.10;;;;;;5096031;28;20032;-75
2022/06/18 02:49:06;;;;;;;5.45;3.20;;;23.90;69.30;;;;;;5095801;28;20044;-75
2022/06/18 02:51:34;;;;;;;4.20;3.10;;;23.90;69.50;;;;;;5096053;28;20031;-75
2022/06/18 02:54:00;;;;;;;7.05;3.92;;;23.90;69.80;;;;;;5096122;28;20069;-74
2022/06/18 02:56:25;;;;;;;5.35;4.15;;;23.80;70.00;;;;;;5095648;28;20024;-74
2022/06/18 02:58:51;;;;;;;7.30;3.70;;;23.80;70.30;;;;;;5095970;28;20016;-75
2022/06/18 03:01:23;;;;;;;11.13;3.92;;;23.70;70.40;;;;;;5095762;28;20456;-75
2022/06/18 03:03:56;;;;;;;6.10;4.03;;;23.70;70.50;;;;;;5096131;28;20390;-74
2022/06/18 03:06:26;;;;;;;5.93;4.22;;;23.70;70.80;;;;;;5096108;28;20098;-75
2022/06/18 03:08:51;;;;;;;10.27;4.30;;;23.70;71.10;;;;;;5095527;28;20115;-74
2022/06/18 03:14:05;;;;;;;6.68;3.90;;;23.60;71.60;;;;;;5095562;28;20035;-75
2022/06/18 03:16:30;;;;;;;11.00;4.97;;;23.60;71.50;;;;;;5095678;28;20054;-75
2022/06/18 03:18:57;;;;;;;10.18;4.60;;;23.50;71.80;;;;;;5095348;28;20039;-75
2022/06/18 03:21:47;;;;;;;5.95;3.90;;;23.50;72.00;;;;;;5095007;28;20453;-75
2022/06/18 03:24:13;;;;;;;8.57;5.35;;;23.50;72.20;;;;;;5095641;28;20031;-75
2022/06/18 03:26:39;;;;;;;6.07;4.60;;;23.50;72.40;;;;;;5095610;28;20024;-75
2022/06/18 03:29:06;;;;;;;9.23;4.95;;;23.40;72.40;;;;;;5095192;28;20585;-76
2022/06/18 03:31:33;;;;;;;10.30;5.15;;;23.40;72.50;;;;;;5095047;28;20043;-75
2022/06/18 03:33:59;;;;;;;8.20;5.22;;;23.40;72.70;;;;;;5094854;28;20467;-76
2022/06/18 03:36:25;;;;;;;7.95;4.60;;;23.40;72.50;;;;;;5095007;28;20081;-76
2022/06/18 03:38:51;;;;;;;10.93;5.40;;;23.40;72.60;;;;;;5095081;28;20107;-75
2022/06/18 03:41:18;;;;;;;17.55;4.43;;;23.40;72.90;;;;;;5095123;28;20051;-76
2022/06/18 03:43:44;;;;;;;4.90;3.50;;;23.40;72.80;;;;;;5094718;28;20028;-75
2022/06/18 03:46:13;;;;;;;6.15;3.45;;;23.40;72.80;;;;;;5094930;28;20020;-75
2022/06/18 03:48:50;;;;;;;5.57;3.35;;;23.50;72.90;;;;;;5094740;28;20138;-75
2022/06/18 03:51:17;;;;;;;6.43;3.92;;;23.50;72.80;;;;;;5094667;28;20044;-76
2022/06/18 03:53:43;;;;;;;4.75;4.13;;;23.60;72.80;;;;;;5094907;28;20146;-76
2022/06/18 03:56:14;;;;;;;6.40;4.20;;;23.60;72.90;;;;;;5094946;28;20455;-76
2022/06/18 03:58:40;;;;;;;6.40;3.90;;;23.60;73.00;;;;;;5094817;28;20020;-76
2022/06/18 04:01:07;;;;;;;8.90;4.88;;;23.60;73.00;;;;;;5094371;28;20028;-76
2022/06/18 04:03:32;;;;;;;9.38;4.72;;;23.70;72.90;;;;;;5094894;28;20422;-76
2022/06/18 04:05:58;;;;;;;7.63;4.45;;;23.70;72.90;;;;;;5095142;28;20070;-75
2022/06/18 04:08:24;;;;;;;11.15;5.68;;;23.70;72.80;;;;;;5094174;28;20026;-75
2022/06/18 04:10:49;;;;;;;8.00;5.30;;;23.70;72.70;;;;;;5094501;28;20031;-76
2022/06/18 04:13:15;;;;;;;8.93;4.55;;;23.70;72.70;;;;;;5094183;28;20443;-76
2022/06/18 04:15:41;;;;;;;5.97;5.30;;;23.70;72.70;;;;;;5094596;28;20028;-76
2022/06/18 04:18:07;;;;;;;10.32;5.22;;;23.70;72.60;;;;;;5094492;28;20536;-76
2022/06/18 04:20:37;;;;;;;5.03;4.53;;;23.70;72.60;;;;;;5094208;28;20046;-76
2022/06/18 04:23:04;;;;;;;6.57;4.45;;;23.70;72.60;;;;;;5094360;28;20069;-76
2022/06/18 04:25:31;;;;;;;7.15;5.50;;;23.70;72.50;;;;;;5094095;28;20024;-76
2022/06/18 04:27:57;;;;;;;10.50;6.00;;;23.70;72.50;;;;;;5093888;28;20536;-76
2022/06/18 04:30:24;;;;;;;9.48;5.63;;;23.70;72.60;;;;;;5093537;28;20107;-76
2022/06/18 04:32:50;;;;;;;8.10;6.18;;;23.70;72.70;;;;;;5094201;28;20134;-76
2022/06/18 04:35:16;;;;;;;5.68;4.78;;;23.70;72.80;;;;;;5094036;28;20122;-76
2022/06/18 04:37:44;;;;;;;9.85;5.38;;;23.70;72.70;;;;;;5093904;28;20024;-76
2022/06/18 04:40:20;;;;;;;8.02;4.95;;;23.70;72.70;;;;;;5093507;28;20021;-76
2022/06/18 04:42:46;;;;;;;8.20;5.38;;;23.70;72.60;;;;;;5093628;28;20484;-76
2022/06/18 04:45:12;;;;;;;12.48;6.53;;;23.80;72.70;;;;;;5093907;28;20027;-76
2022/06/18 04:47:40;;;;;;;8.98;5.95;;;23.80;72.70;;;;;;5093824;28;20024;-75
2022/06/18 04:50:07;;;;;;;11.50;6.05;;;23.80;72.60;;;;;;5093416;28;20039;-75
2022/06/18 04:52:34;;;;;;;8.98;5.63;;;23.80;72.80;;;;;;5093514;28;20083;-76
2022/06/18 04:55:00;;;;;;;9.60;4.97;;;23.80;72.90;;;;;;5093421;28;20043;-76
2022/06/18 04:57:25;;;;;;;8.73;4.70;;;23.80;72.90;;;;;;5093778;28;20024;-75
2022/06/18 04:59:51;;;;;;;7.53;4.97;;;23.80;72.90;;;;;;5093682;28;20028;-76
2022/06/18 05:02:25;;;;;;;7.80;4.97;;;23.90;73.00;;;;;;5093594;28;20016;-75
2022/06/18 05:04:53;;;;;;;9.02;5.35;;;23.90;73.30;;;;;;5093745;28;20032;-75
2022/06/18 05:07:18;;;;;;;7.90;5.65;;;23.90;73.50;;;;;;5093706;28;20024;-75
2022/06/18 05:09:44;;;;;;;6.75;5.63;;;23.90;73.70;;;;;;5094184;28;20156;-76
2022/06/18 05:12:12;;;;;;;8.27;5.72;;;24.00;74.00;;;;;;5093482;28;20028;-76
2022/06/18 05:14:38;;;;;;;7.72;5.38;;;24.00;74.40;;;;;;5093691;28;20095;-76
2022/06/18 05:17:05;;;;;;;10.43;6.07;;;24.00;74.70;;;;;;5093016;28;20451;-75
2022/06/18 05:19:32;;;;;;;9.80;6.63;;;24.00;75.00;;;;;;5093535;28;20107;-76
2022/06/18 05:21:59;;;;;;;15.18;6.85;;;24.00;75.30;;;;;;5093518;28;20016;-76
2022/06/18 05:24:25;;;;;;;9.02;6.90;;;24.00;75.40;;;;;;5093478;28;20024;-76
2022/06/18 05:26:54;;;;;;;13.65;7.57;;;23.90;75.60;;;;;;5093197;28;20166;-76
2022/06/18 05:29:20;;;;;;;12.70;8.35;;;23.90;76.00;;;;;;5093407;28;20023;-76
2022/06/18 05:31:46;;;;;;;8.45;6.63;;;23.90;76.30;;;;;;5093018;28;20032;-75
2022/06/18 05:34:12;;;;;;;10.73;6.75;;;23.90;76.60;;;;;;5093255;28;20103;-74
2022/06/18 05:36:38;;;;;;;13.75;7.18;;;23.80;76.80;;;;;;5097195;28;20402;-75
2022/06/18 05:39:05;;;;;;;12.52;8.32;;;23.80;77.00;;;;;;5097092;28;20020;-74
2022/06/18 05:41:31;;;;;;;10.27;7.53;;;23.80;77.30;;;;;;5097029;28;20034;-75
2022/06/18 05:43:57;;;;;;;12.57;7.70;;;23.70;77.20;;;;;;5097204;28;20383;-75
2022/06/18 05:46:23;;;;;;;16.95;8.57;;;23.80;77.20;;;;;;5097070;28;20020;-75
2022/06/18 05:48:49;;;;;;;11.82;7.93;;;23.80;77.60;;;;;;5096712;28;20075;-75
2022/06/18 05:51:14;;;;;;;12.05;7.32;;;23.80;77.50;;;;;;5096696;28;20067;-75
2022/06/18 05:53:40;;;;;;;13.95;7.80;;;23.80;77.50;;;;;;5097158;28;20024;-75
2022/06/18 05:56:05;;;;;;;11.30;7.80;;;23.90;77.50;;;;;;5097097;28;20562;-74
2022/06/18 05:58:31;;;;;;;10.02;7.22;;;23.90;77.50;;;;;;5097011;28;20024;-75
2022/06/18 06:00:57;;;;;;;13.75;8.20;;;23.90;77.40;;;;;;5096777;28;20094;-75
2022/06/18 06:03:23;;;;;;;12.95;7.88;;;23.90;78.10;;;;;;5096695;28;20024;-75
2022/06/18 06:05:49;;;;;;;15.27;8.02;;;23.90;77.60;;;;;;5096785;28;20016;-74
2022/06/18 06:08:15;;;;;;;16.70;8.38;;;23.90;77.50;;;;;;5096911;28;20035;-74
2022/06/18 06:13:26;;;;;;;14.18;7.65;;;23.90;77.50;;;;;;5097587;28;20039;-75
2022/06/18 06:15:53;;;;;;;12.90;7.47;;;23.90;77.60;;;;;;5096481;28;20165;-75
2022/06/18 06:18:22;;;;;;;12.32;6.72;;;24.00;77.90;;;;;;5096116;28;20028;-76
2022/06/18 06:20:51;;;;;;;12.23;6.97;;;24.00;77.90;;;;;;5096346;28;20099;-75
2022/06/18 06:23:17;;;;;;;10.48;6.38;;;24.10;77.70;;;;;;5096505;28;20020;-75
2022/06/18 06:25:44;;;;;;;13.68;6.72;;;24.10;77.60;;;;;;5096403;28;20024;-75
2022/06/18 06:28:19;;;;;;;10.10;6.40;;;24.20;77.70;;;;;;5096399;28;20103;-75
2022/06/18 06:30:45;;;;;;;12.68;6.53;;;24.20;77.30;;;;;;5095852;28;20024;-75
2022/06/18 06:33:11;;;;;;;12.55;6.43;;;24.30;77.20;;;;;;5095998;28;20528;-75
2022/06/18 06:35:37;;;;;;;14.05;7.05;;;24.40;76.90;;;;;;5096297;28;20023;-75
2022/06/18 06:38:03;;;;;;;10.23;6.18;;;24.40;76.90;;;;;;5095702;28;20135;-75
2022/06/18 06:40:31;;;;;;;15.68;8.23;;;24.40;77.00;;;;;;5095992;28;20111;-75
2022/06/18 06:42:58;;;;;;;14.27;7.15;;;24.40;77.10;;;;;;5095978;28;20379;-76
2022/06/18 06:45:26;;;;;;;12.73;6.82;;;24.30;77.30;;;;;;5095657;28;20467;-75
2022/06/18 06:47:52;;;;;;;14.35;7.70;;;24.40;77.50;;;;;;5094246;28;20024;-76
2022/06/18 06:50:19;;;;;;;13.57;7.20;;;24.50;77.70;;;;;;5095962;28;20032;-76
2022/06/18 06:52:45;;;;;;;12.02;7.05;;;24.50;77.50;;;;;;5095782;28;20486;-76
2022/06/18 06:58:01;;;;;;;17.48;6.70;;;24.50;77.60;;;;;;5095804;28;20038;-76
2022/06/18 07:00:27;;;;;;;15.10;6.90;;;24.60;77.50;;;;;;5095875;28;20110;-76
2022/06/18 07:02:52;;;;;;;15.80;7.00;;;24.70;78.10;;;;;;5095495;28;20020;-76
2022/06/18 07:05:18;;;;;;;11.05;6.53;;;24.70;77.40;;;;;;5095322;28;20016;-76
2022/06/18 07:07:44;;;;;;;12.63;5.13;;;24.70;77.40;;;;;;5095901;28;20020;-76
2022/06/18 07:10:10;;;;;;;12.70;6.05;;;24.80;77.50;;;;;;5095612;28;20481;-76
2022/06/18 07:12:37;;;;;;;11.35;6.32;;;24.90;77.50;;;;;;5095573;28;20032;-75
2022/06/18 07:15:03;;;;;;;14.80;6.60;;;25.00;77.10;;;;;;5095649;28;20028;-75
2022/06/18 07:17:29;;;;;;;13.82;6.80;;;25.00;77.20;;;;;;5095564;28;20028;-75
2022/06/18 07:19:55;;;;;;;17.10;7.05;;;25.00;77.10;;;;;;5095264;28;20388;-75
2022/06/18 07:22:20;;;;;;;12.45;6.93;;;25.00;77.60;;;;;;5095331;28;20035;-75
2022/06/18 07:24:46;;;;;;;12.52;7.40;;;25.10;77.60;;;;;;5095039;28;20031;-75
2022/06/18 07:27:12;;;;;;;14.43;6.72;;;25.10;77.30;;;;;;5095127;28;20023;-75
2022/06/18 07:29:38;;;;;;;12.05;6.78;;;25.10;77.10;;;;;;5095380;28;20055;-75
2022/06/18 07:32:11;;;;;;;13.23;7.20;;;25.20;77.30;;;;;;5094979;28;20100;-75
2022/06/18 07:34:37;;;;;;;13.18;6.70;;;25.30;77.20;;;;;;5095078;28;20044;-75
2022/06/18 07:37:03;;;;;;;15.75;6.07;;;25.30;76.70;;;;;;5095152;28;20023;-75
2022/06/18 07:39:29;;;;;;;16.08;7.30;;;25.30;76.50;;;;;;5095239;28;20070;-76
2022/06/18 07:41:55;;;;;;;10.07;5.03;;;25.40;76.30;;;;;;5095048;28;20028;-76
2022/06/18 07:44:23;;;;;;;13.80;5.38;;;25.40;76.80;;;;;;5095187;28;20035;-76
2022/06/18 07:46:49;;;;;;;13.40;5.88;;;25.50;76.60;;;;;;5094857;28;20028;-76
2022/06/18 07:49:15;;;;;;;10.88;5.45;;;25.60;75.90;;;;;;5094552;28;20548;-76
2022/06/18 07:51:41;;;;;;;14.30;4.70;;;25.70;75.80;;;;;;5094563;28;20040;-76
2022/06/18 07:54:09;;;;;;;11.35;4.70;;;25.70;75.80;;;;;;5094656;28;20028;-76
2022/06/18 07:56:34;;;;;;;12.93;5.07;;;25.90;76.40;;;;;;5094621;28;20035;-76
2022/06/18 07:59:00;;;;;;;11.73;5.18;;;25.90;75.40;;;;;;5094201;28;20028;-76
2022/06/18 08:01:27;;;;;;;11.02;5.82;;;26.00;75.60;;;;;;5094505;28;20103;-76
2022/06/18 08:03:52;;;;;;;11.88;4.70;;;26.10;75.60;;;;;;5094357;28;20023;-76
2022/06/18 08:06:18;;;;;;;13.30;4.75;;;26.10;75.40;;;;;;5094538;28;20028;-76
2022/06/18 08:08:43;;;;;;;15.30;5.70;;;26.20;74.80;;;;;;5094044;28;20523;-76
2022/06/18 08:11:12;;;;;;;13.60;5.18;;;26.30;74.90;;;;;;5094249;28;20371;-76
2022/06/18 08:13:38;;;;;;;15.45;4.97;;;26.30;75.10;;;;;;5094653;28;20026;-76
2022/06/18 08:16:05;;;;;;;12.55;4.88;;;26.30;75.10;;;;;;5094350;28;20024;-76
2022/06/18 08:18:31;;;;;;;12.50;4.80;;;26.40;76.70;;;;;;5094397;28;20085;-76
2022/06/18 08:21:26;;;;;;;14.40;5.07;;;26.50;75.70;;;;;;5094195;28;20426;-76
2022/06/18 08:23:56;;;;;;;11.23;4.85;;;26.60;74.70;;;;;;5090873;28;20042;-76
2022/06/18 08:26:24;;;;;;;9.95;4.32;;;26.70;74.60;;;;;;5093901;28;20020;-76
2022/06/18 08:28:50;;;;;;;11.02;4.45;;;26.80;74.50;;;;;;5094106;28;20074;-76
2022/06/18 08:31:16;;;;;;;13.52;4.43;;;26.90;75.40;;;;;;5093952;28;20040;-76
2022/06/18 08:33:42;;;;;;;9.32;4.10;;;27.00;74.60;;;;;;5093844;28;20027;-76
2022/06/18 08:36:12;;;;;;;15.23;4.35;;;27.10;74.50;;;;;;5093814;28;20031;-76
2022/06/18 08:38:39;;;;;;;13.02;4.72;;;27.20;74.20;;;;;;5093728;28;20020;-76
2022/06/18 08:41:17;;;;;;;12.73;4.85;;;27.30;73.80;;;;;;5093922;28;20413;-76
2022/06/18 08:44:08;;;;;;;10.38;3.97;;;27.30;73.90;;;;;;5094037;28;20425;-76
2022/06/18 08:46:54;;;;;;;11.85;4.40;;;27.40;76.20;;;;;;5094103;28;20028;-76
2022/06/18 08:49:34;;;;;;;12.93;4.55;;;27.50;74.10;;;;;;5093336;28;20056;-76
2022/06/18 08:52:09;;;;;;;13.55;4.90;;;27.50;73.40;;;;;;5093549;28;20035;-76
2022/06/18 08:54:49;;;;;;;15.50;4.28;;;27.60;73.40;;;;;;5093476;28;20106;-76
2022/06/18 08:57:23;;;;;;;14.95;4.55;;;27.70;73.30;;;;;;5093557;28;20103;-76
2022/06/18 09:00:13;;;;;;;13.68;4.47;;;27.70;72.70;;;;;;5093527;28;20456;-76
2022/06/18 09:02:42;;;;;;;16.20;4.03;;;27.80;72.00;;;;;;5093849;28;20024;-76
2022/06/18 09:05:36;;;;;;;15.73;4.85;;;27.90;71.60;;;;;;5093269;28;20106;-76
2022/06/18 09:08:16;;;;;;;13.38;4.43;;;28.00;70.50;;;;;;5093384;28;20035;-76
2022/06/18 09:11:00;;;;;;;15.13;4.50;;;28.00;69.40;;;;;;5092679;28;20080;-76
2022/06/18 09:13:36;;;;;;;17.15;3.80;;;28.10;69.90;;;;;;5093230;28;20035;-76
2022/06/18 09:16:08;;;;;;;12.73;3.78;;;28.10;69.90;;;;;;5093353;28;20039;-76
2022/06/18 09:18:40;;;;;;;12.27;3.55;;;28.20;68.30;;;;;;5093459;28;20051;-76
2022/06/18 09:21:14;;;;;;;;;;;28.30;68.90;;;;;;5093710;28;20024;-76
2022/06/18 09:23:45;;;;;;;9.18;3.45;;;28.30;68.20;;;;;;5093500;28;19904;-76
2022/06/18 09:26:19;;;;;;;13.63;4.17;;;28.40;69.10;;;;;;5092974;28;20058;-76
2022/06/18 09:28:57;;;;;;;11.13;3.15;;;28.50;70.00;;;;;;5093114;28;20085;-76
2022/06/18 09:31:38;;;;;;;6.57;2.70;;;28.50;68.50;;;;;;5092996;28;20467;-76
2022/06/18 09:34:34;;;;;;;14.00;3.47;;;28.60;66.90;;;;;;5093397;28;20081;-77
2022/06/18 09:37:07;;;;;;;9.07;3.10;;;28.70;66.70;;;;;;5092258;28;20383;-76
2022/06/18 09:39:48;;;;;;;8.77;3.78;;;28.80;67.00;;;;;;5093232;28;20119;-76
2022/06/18 09:42:24;;;;;;;12.98;3.70;;;29.00;68.00;;;;;;5093406;28;20035;-76
2022/06/18 09:45:02;;;;;;;13.73;3.58;;;29.00;68.60;;;;;;5093062;28;20035;-76
2022/06/18 09:47:39;;;;;;;10.25;3.95;;;29.10;67.90;;;;;;5092955;28;20025;-76
2022/06/18 09:50:23;;;;;;;12.38;4.25;;;29.10;67.90;;;;;;5092857;28;20082;-76
2022/06/18 09:52:56;;;;;;;9.55;3.65;;;29.20;67.80;;;;;;5092705;28;20024;-76
2022/06/18 09:55:35;;;;;;;10.05;3.42;;;29.20;68.50;;;;;;5092854;28;20035;-76
2022/06/18 09:58:04;;;;;;;10.85;3.40;;;29.30;70.10;;;;;;5093278;28;20020;-75
2022/06/18 10:00:31;;;;;;;12.38;3.05;;;29.40;67.90;;;;;;5093078;28;20059;-76
2022/06/18 10:03:05;;;;;;;12.13;3.35;;;29.50;68.80;;;;;;5093151;28;20024;-76
2022/06/18 10:08:28;;;;;;;9.75;4.03;;;29.70;66.60;;;;;;5092851;28;20055;-76
2022/06/18 10:11:07;;;;;;;15.48;3.97;;;29.70;65.80;;;;;;5092655;28;20032;-76
2022/06/18 10:13:42;;;;;;;9.07;3.88;;;29.70;65.30;;;;;;5092912;28;20032;-75
2022/06/18 10:16:31;;;;;;;11.60;3.28;;;29.70;64.90;;;;;;5093011;28;20020;-76
2022/06/18 10:19:25;;;;;;;11.40;3.17;;;29.70;66.20;;;;;;5092091;28;20055;-76
2022/06/18 10:22:09;;;;;;;16.58;3.80;;;29.80;65.70;;;;;;5095292;28;20027;-76
2022/06/18 10:24:44;;;;;;;11.10;3.40;;;29.90;65.60;;;;;;5096742;28;20361;-76
2022/06/18 10:27:25;;;;;;;13.43;3.72;;;30.00;65.20;;;;;;5096636;28;20020;-76
2022/06/18 10:30:05;;;;;;;15.93;4.20;;;30.10;64.80;;;;;;5096583;28;20028;-76
2022/06/18 10:33:00;;;;;;;16.27;3.90;;;30.10;64.40;;;;;;5096009;28;20036;-76
2022/06/18 10:36:01;;;;;;;11.68;4.00;;;30.10;64.70;;;;;;5096203;28;20124;-76
2022/06/18 10:38:55;;;;;;;7.45;3.38;;;30.20;65.40;;;;;;5096196;28;20118;-76
2022/06/18 10:41:30;;;;;;;12.70;3.83;;;30.20;64.70;;;;;;5095923;28;20478;-76
2022/06/18 10:44:31;;;;;;;10.20;3.08;;;30.30;64.10;;;;;;5096218;28;20027;-76
2022/06/18 10:47:11;;;;;;;11.02;3.45;;;30.30;64.30;;;;;;5033313;28;20029;-76
2022/06/18 10:49:37;;;;;;;14.88;3.88;;;30.40;64.00;;;;;;5088879;28;20109;-76
2022/06/18 10:52:04;;;;;;;13.82;4.50;;;30.40;63.70;;;;;;5095727;28;20483;-76
2022/06/18 10:54:35;;;;;;;12.15;4.03;;;30.40;63.30;;;;;;5096261;28;20020;-76
2022/06/18 10:57:02;;;;;;;13.27;3.70;;;30.40;62.90;;;;;;5095558;28;20123;-76
2022/06/18 10:59:39;;;;;;;10.65;3.17;;;30.40;62.70;;;;;;5095974;28;20031;-76
2022/06/18 11:02:16;;;;;;;14.32;4.03;;;30.50;61.70;;;;;;5095705;28;20087;-76
2022/06/18 11:04:57;;;;;;;12.82;4.68;;;30.60;62.80;;;;;;5095787;28;20028;-76
2022/06/18 11:07:28;;;;;;;10.75;3.95;;;30.70;62.70;;;;;;5095559;28;20028;-76
2022/06/18 11:09:57;;;;;;;11.68;3.70;;;30.70;62.70;;;;;;5095643;28;20028;-76
2022/06/18 11:12:27;;;;;;;10.80;3.60;;;30.80;62.60;;;;;;5095165;28;20487;-76
2022/06/18 11:14:53;;;;;;;10.85;3.53;;;30.90;64.50;;;;;;5095633;28;20031;-77
2022/06/18 11:17:41;;;;;;;12.93;3.83;;;31.00;62.80;;;;;;5095580;28;20473;-77
2022/06/18 11:20:21;;;;;;;8.98;3.08;;;31.10;61.80;;;;;;5095726;28;20024;-76
2022/06/18 11:23:11;;;;;;;11.93;4.82;;;31.20;62.30;;;;;;5095454;28;20067;-77
2022/06/18 11:25:40;;;;;;;12.00;3.50;;;31.20;60.70;;;;;;5095479;28;20024;-76
2022/06/18 11:28:19;;;;;;;12.20;3.78;;;31.20;60.10;;;;;;5095436;28;20102;-77
2022/06/18 11:30:48;;;;;;;10.38;3.40;;;31.20;60.60;;;;;;5095188;28;20088;-77
2022/06/18 11:33:29;;;;;;;10.38;3.70;;;31.20;61.20;;;;;;5094643;28;20024;-77
2022/06/18 11:35:55;;;;;;;;;;;31.40;60.70;;;;;;5095759;28;20051;-77
2022/06/18 11:38:32;;;;;;;9.98;3.03;;;31.40;59.40;;;;;;5095115;28;20275;-77
2022/06/18 11:41:22;;;;;;;9.18;3.20;;;31.50;61.30;;;;;;5095076;28;20020;-77
2022/06/18 11:44:04;;;;;;;13.02;3.67;;;31.50;58.00;;;;;;5095087;28;20110;-77
2022/06/18 11:46:37;;;;;;;10.55;2.78;;;31.50;57.60;;;;;;5094744;28;20067;-77
2022/06/18 11:49:26;;;;;;;18.58;3.40;;;31.50;57.60;;;;;;5094165;28;20067;-77
2022/06/18 11:52:04;;;;;;;11.27;3.20;;;31.50;58.40;;;;;;5094406;28;20403;-76
2022/06/18 11:54:50;;;;;;;11.50;2.92;;;31.50;59.10;;;;;;5094887;28;20039;-76
2022/06/18 11:57:25;;;;;;;14.48;3.45;;;31.70;58.70;;;;;;5094527;28;20028;-75
2022/06/18 12:00:01;;;;;;;13.13;2.92;;;31.70;57.00;;;;;;5094708;28;20020;-75
2022/06/18 12:02:40;;;;;;;11.77;2.83;;;31.70;57.10;;;;;;5094462;28;20028;-76
2022/06/18 12:05:15;;;;;;;11.73;3.22;;;31.70;56.80;;;;;;5094386;28;20020;-75
2022/06/18 12:07:49;;;;;;;9.60;2.47;;;31.60;56.80;;;;;;5094313;28;20031;-76
2022/06/18 12:10:17;;;;;;;9.95;2.90;;;31.70;56.50;;;;;;5094179;28;20102;-75
2022/06/18 12:12:53;;;;;;;7.28;2.90;;;31.60;55.50;;;;;;5094212;28;20063;-76
2022/06/18 12:15:29;;;;;;;14.35;2.83;;;31.70;55.90;;;;;;5094481;28;20020;-76
2022/06/18 12:18:19;;;;;;;10.60;2.78;;;31.70;56.10;;;;;;5094030;28;20094;-76
2022/06/18 12:21:02;;;;;;;9.68;3.30;;;31.70;56.50;;;;;;5093893;28;20487;-76
2022/06/18 12:24:01;;;;;;;10.38;2.83;;;31.80;56.40;;;;;;5094179;28;20035;-76
2022/06/18 12:26:32;;;;;;;12.20;3.30;;;31.80;56.50;;;;;;5094173;28;20034;-76
2022/06/18 12:29:01;;;;;;;13.40;3.70;;;31.80;55.80;;;;;;5093941;28;20081;-75
2022/06/18 12:31:35;;;;;;;11.90;3.13;;;31.80;56.30;;;;;;5094341;28;20050;-75
2022/06/18 12:34:08;;;;;;;12.98;3.22;;;31.80;56.60;;;;;;5094357;28;20032;-75
2022/06/18 12:37:06;;;;;;;11.85;2.90;;;31.80;56.30;;;;;;5093954;28;20415;-75
2022/06/18 12:40:19;;;;;;;13.25;2.85;;;31.70;56.40;;;;;;5093550;28;20053;-75
2022/06/18 12:43:02;;;;;;;12.13;3.05;;;31.60;56.50;;;;;;5031313;28;20084;-75
2022/06/18 12:46:03;;;;;;;12.52;3.20;;;31.60;56.90;;;;;;5092133;28;20040;-75
2022/06/18 12:48:49;;;;;;;11.73;3.00;;;31.50;57.40;;;;;;5093535;28;20040;-75
2022/06/18 12:51:20;;;;;;;10.73;3.05;;;31.40;57.60;;;;;;5093584;28;20016;-76
2022/06/18 12:54:19;;;;;;;16.10;3.55;;;31.40;57.70;;;;;;5094044;28;20055;-75
2022/06/18 12:57:02;;;;;;;13.88;3.25;;;31.40;57.90;;;;;;5093755;28;20028;-76
2022/06/18 12:59:48;;;;;;;11.93;3.33;;;31.50;58.20;;;;;;5093345;28;20383;-76
2022/06/18 13:02:18;;;;;;;11.32;2.97;;;31.50;58.20;;;;;;5093390;28;20032;-75
2022/06/18 13:05:10;;;;;;;11.75;3.70;;;31.60;58.40;;;;;;5093663;28;20019;-76
2022/06/18 13:07:50;;;;;;;17.40;3.17;;;31.50;57.50;;;;;;5093558;28;20028;-76
2022/06/18 13:10:44;;;;;;;10.63;2.80;;;31.70;58.30;;;;;;5093528;28;20062;-76
2022/06/18 13:13:21;;;;;;;9.07;3.15;;;31.80;58.20;;;;;;5093255;28;20030;-75
2022/06/18 13:15:51;;;;;;;14.23;3.47;;;32.00;57.40;;;;;;5093311;28;20379;-75
2022/06/18 13:18:37;;;;;;;12.68;3.25;;;32.00;57.10;;;;;;5093390;28;20028;-76
2022/06/18 13:21:07;;;;;;;13.85;3.42;;;32.00;57.10;;;;;;5093197;28;20028;-76